sensor_id;sensor_type;location;lat;lon;timestamp;P1;durP1;ratioP1;P2;durP2;ratioP2
6348;SDS011;3207;42.648;23.406;2023-06-14T00:01:13;4.20;;;3.80;;
6348;SDS011;3207;42.648;23.406;2023-06-14T00:03:40;4.80;;;3.85;;
6348;SDS011;3207;42.648;23.406;2023-06-14T00:06:06;4.93;;;3.80;;
6348;SDS011;3207;42.648;23.406;2023-06-14T00:08:33;3.95;;;3.60;;
6348;SDS011;3207;42.648;23.406;2023-06-14T00:11:00;4.85;;;3.28;;
6348;SDS011;3207;42.648;23.406;2023-06-14T00:13:28;4.32;;;3.22;;
6348;SDS011;3207;42.648;23.406;2023-06-14T00:15:54;3.78;;;3.40;;
6348;SDS011;3207;42.648;23.406;2023-06-14T00:18:21;4.38;;;3.38;;
6348;SDS011;3207;42.648;23.406;2023-06-14T00:20:50;5.57;;;3.78;;
6348;SDS011;3207;42.648;23.406;2023-06-14T00:23:17;5.22;;;3.75;;
6348;SDS011;3207;42.648;23.406;2023-06-14T00:25:44;6.15;;;3.55;;
6348;SDS011;3207;42.648;23.406;2023-06-14T00:28:10;5.03;;;3.35;;
6348;SDS011;3207;42.648;23.406;2023-06-14T00:30:38;7.97;;;3.65;;
6348;SDS011;3207;42.648;23.406;2023-06-14T00:33:05;8.43;;;3.67;;
6348;SDS011;3207;42.648;23.406;2023-06-14T00:35:31;4.40;;;3.60;;
6348;SDS011;3207;42.648;23.406;2023-06-14T00:37:58;4.25;;;3.60;;
6348;SDS011;3207;42.648;23.406;2023-06-14T00:40:25;3.88;;;3.15;;
6348;SDS011;3207;42.648;23.406;2023-06-14T00:42:51;5.80;;;3.28;;
6348;SDS011;3207;42.648;23.406;2023-06-14T00:45:18;5.45;;;3.40;;
6348;SDS011;3207;42.648;23.406;2023-06-14T00:47:46;3.92;;;3.17;;
6348;SDS011;3207;42.648;23.406;2023-06-14T00:50:13;3.42;;;3.03;;
6348;SDS011;3207;42.648;23.406;2023-06-14T00:52:40;5.68;;;3.00;;
6348;SDS011;3207;42.648;23.406;2023-06-14T00:55:07;3.58;;;3.28;;
6348;SDS011;3207;42.648;23.406;2023-06-14T00:57:34;4.10;;;3.70;;
6348;SDS011;3207;42.648;23.406;2023-06-14T01:00:03;6.85;;;3.72;;
6348;SDS011;3207;42.648;23.406;2023-06-14T01:02:29;4.78;;;3.20;;
6348;SDS011;3207;42.648;23.406;2023-06-14T01:04:57;3.50;;;3.20;;
6348;SDS011;3207;42.648;23.406;2023-06-14T01:07:30;5.68;;;3.47;;
6348;SDS011;3207;42.648;23.406;2023-06-14T01:10:09;3.80;;;3.40;;
6348;SDS011;3207;42.648;23.406;2023-06-14T01:12:39;3.75;;;3.45;;
6348;SDS011;3207;42.648;23.406;2023-06-14T01:15:11;4.85;;;3.40;;
6348;SDS011;3207;42.648;23.406;2023-06-14T01:17:38;4.10;;;3.63;;
6348;SDS011;3207;42.648;23.406;2023-06-14T01:20:09;7.97;;;3.70;;
6348;SDS011;3207;42.648;23.406;2023-06-14T01:22:45;7.18;;;3.58;;
6348;SDS011;3207;42.648;23.406;2023-06-14T01:25:12;6.35;;;4.05;;
6348;SDS011;3207;42.648;23.406;2023-06-14T01:27:39;5.05;;;3.75;;
6348;SDS011;3207;42.648;23.406;2023-06-14T01:30:06;4.60;;;3.65;;
6348;SDS011;3207;42.648;23.406;2023-06-14T01:32:33;6.20;;;3.63;;
6348;SDS011;3207;42.648;23.406;2023-06-14T01:34:59;4.90;;;4.10;;
6348;SDS011;3207;42.648;23.406;2023-06-14T01:37:26;5.97;;;4.28;;
6348;SDS011;3207;42.648;23.406;2023-06-14T01:39:54;4.15;;;3.75;;
6348;SDS011;3207;42.648;23.406;2023-06-14T01:42:21;4.07;;;3.60;;
6348;SDS011;3207;42.648;23.406;2023-06-14T01:44:47;5.30;;;4.07;;
6348;SDS011;3207;42.648;23.406;2023-06-14T01:47:14;3.95;;;3.53;;
6348;SDS011;3207;42.648;23.406;2023-06-14T01:49:41;4.00;;;3.28;;
6348;SDS011;3207;42.648;23.406;2023-06-14T01:52:07;8.35;;;4.13;;
6348;SDS011;3207;42.648;23.406;2023-06-14T01:54:35;4.13;;;3.70;;
6348;SDS011;3207;42.648;23.406;2023-06-14T01:57:04;5.10;;;3.80;;
6348;SDS011;3207;42.648;23.406;2023-06-14T01:59:32;3.88;;;3.47;;
6348;SDS011;3207;42.648;23.406;2023-06-14T02:02:02;5.47;;;3.75;;
6348;SDS011;3207;42.648;23.406;2023-06-14T02:04:28;4.97;;;4.10;;
6348;SDS011;3207;42.648;23.406;2023-06-14T02:06:55;7.60;;;3.17;;
6348;SDS011;3207;42.648;23.406;2023-06-14T02:09:21;3.67;;;3.38;;
6348;SDS011;3207;42.648;23.406;2023-06-14T02:11:48;3.55;;;3.25;;
6348;SDS011;3207;42.648;23.406;2023-06-14T02:14:16;3.95;;;3.58;;
6348;SDS011;3207;42.648;23.406;2023-06-14T02:16:43;7.55;;;3.72;;
6348;SDS011;3207;42.648;23.406;2023-06-14T02:19:13;3.75;;;3.45;;
6348;SDS011;3207;42.648;23.406;2023-06-14T02:21:40;4.25;;;3.08;;
6348;SDS011;3207;42.648;23.406;2023-06-14T02:24:07;5.20;;;3.50;;
6348;SDS011;3207;42.648;23.406;2023-06-14T02:26:33;3.95;;;3.40;;
6348;SDS011;3207;42.648;23.406;2023-06-14T02:29:00;4.65;;;3.30;;
6348;SDS011;3207;42.648;23.406;2023-06-14T02:31:28;3.78;;;3.35;;
6348;SDS011;3207;42.648;23.406;2023-06-14T02:33:55;7.07;;;4.00;;
6348;SDS011;3207;42.648;23.406;2023-06-14T02:36:21;8.35;;;3.92;;
6348;SDS011;3207;42.648;23.406;2023-06-14T02:38:48;5.35;;;3.85;;
6348;SDS011;3207;42.648;23.406;2023-06-14T02:41:14;4.88;;;3.72;;
6348;SDS011;3207;42.648;23.406;2023-06-14T02:43:41;4.35;;;3.67;;
6348;SDS011;3207;42.648;23.406;2023-06-14T02:46:07;8.75;;;3.60;;
6348;SDS011;3207;42.648;23.406;2023-06-14T02:48:35;5.40;;;3.42;;
6348;SDS011;3207;42.648;23.406;2023-06-14T02:51:02;4.60;;;3.65;;
6348;SDS011;3207;42.648;23.406;2023-06-14T02:53:28;6.22;;;4.05;;
6348;SDS011;3207;42.648;23.406;2023-06-14T02:55:55;4.43;;;4.03;;
6348;SDS011;3207;42.648;23.406;2023-06-14T02:58:21;4.43;;;3.55;;
6348;SDS011;3207;42.648;23.406;2023-06-14T03:00:50;4.45;;;3.38;;
6348;SDS011;3207;42.648;23.406;2023-06-14T03:03:17;4.22;;;3.85;;
6348;SDS011;3207;42.648;23.406;2023-06-14T03:05:47;3.72;;;3.38;;
6348;SDS011;3207;42.648;23.406;2023-06-14T03:08:15;4.38;;;3.55;;
6348;SDS011;3207;42.648;23.406;2023-06-14T03:10:44;3.53;;;3.22;;
6348;SDS011;3207;42.648;23.406;2023-06-14T03:13:10;7.07;;;3.35;;
6348;SDS011;3207;42.648;23.406;2023-06-14T03:15:37;5.28;;;4.05;;
6348;SDS011;3207;42.648;23.406;2023-06-14T03:18:07;5.10;;;3.20;;
6348;SDS011;3207;42.648;23.406;2023-06-14T03:20:33;4.72;;;4.25;;
6348;SDS011;3207;42.648;23.406;2023-06-14T03:23:01;4.75;;;3.75;;
6348;SDS011;3207;42.648;23.406;2023-06-14T03:25:30;4.25;;;3.85;;
6348;SDS011;3207;42.648;23.406;2023-06-14T03:27:56;4.80;;;3.65;;
6348;SDS011;3207;42.648;23.406;2023-06-14T03:30:23;3.92;;;3.47;;
6348;SDS011;3207;42.648;23.406;2023-06-14T03:32:50;10.15;;;3.70;;
6348;SDS011;3207;42.648;23.406;2023-06-14T03:35:18;4.63;;;3.83;;
6348;SDS011;3207;42.648;23.406;2023-06-14T03:37:44;7.75;;;3.78;;
6348;SDS011;3207;42.648;23.406;2023-06-14T03:40:12;4.50;;;3.78;;
6348;SDS011;3207;42.648;23.406;2023-06-14T03:42:39;5.93;;;3.70;;
6348;SDS011;3207;42.648;23.406;2023-06-14T03:45:06;10.05;;;4.78;;
6348;SDS011;3207;42.648;23.406;2023-06-14T03:47:33;9.75;;;3.72;;
6348;SDS011;3207;42.648;23.406;2023-06-14T03:50:00;6.00;;;3.75;;
6348;SDS011;3207;42.648;23.406;2023-06-14T03:52:27;8.63;;;4.40;;
6348;SDS011;3207;42.648;23.406;2023-06-14T03:54:54;4.30;;;3.90;;
6348;SDS011;3207;42.648;23.406;2023-06-14T03:57:23;6.32;;;4.05;;
6348;SDS011;3207;42.648;23.406;2023-06-14T03:59:49;4.20;;;3.75;;
6348;SDS011;3207;42.648;23.406;2023-06-14T04:02:16;4.57;;;4.13;;
6348;SDS011;3207;42.648;23.406;2023-06-14T04:04:43;4.38;;;3.65;;
6348;SDS011;3207;42.648;23.406;2023-06-14T04:07:10;6.45;;;4.00;;
6348;SDS011;3207;42.648;23.406;2023-06-14T04:09:37;4.00;;;3.55;;
6348;SDS011;3207;42.648;23.406;2023-06-14T04:12:04;5.68;;;3.30;;
6348;SDS011;3207;42.648;23.406;2023-06-14T04:14:32;6.03;;;3.97;;
6348;SDS011;3207;42.648;23.406;2023-06-14T04:16:59;4.07;;;3.70;;
6348;SDS011;3207;42.648;23.406;2023-06-14T04:19:26;3.72;;;3.40;;
6348;SDS011;3207;42.648;23.406;2023-06-14T04:21:52;5.68;;;4.45;;
6348;SDS011;3207;42.648;23.406;2023-06-14T04:24:20;6.60;;;4.63;;
6348;SDS011;3207;42.648;23.406;2023-06-14T04:26:46;5.00;;;3.88;;
6348;SDS011;3207;42.648;23.406;2023-06-14T04:29:14;4.45;;;4.05;;
6348;SDS011;3207;42.648;23.406;2023-06-14T04:31:43;6.47;;;3.88;;
6348;SDS011;3207;42.648;23.406;2023-06-14T04:34:09;8.85;;;4.38;;
6348;SDS011;3207;42.648;23.406;2023-06-14T04:36:41;6.15;;;4.30;;
6348;SDS011;3207;42.648;23.406;2023-06-14T04:39:14;7.80;;;4.18;;
6348;SDS011;3207;42.648;23.406;2023-06-14T04:41:40;5.57;;;4.72;;
6348;SDS011;3207;42.648;23.406;2023-06-14T04:44:07;4.55;;;3.85;;
6348;SDS011;3207;42.648;23.406;2023-06-14T04:46:35;6.57;;;4.30;;
6348;SDS011;3207;42.648;23.406;2023-06-14T04:49:12;5.20;;;4.57;;
6348;SDS011;3207;42.648;23.406;2023-06-14T04:51:40;5.55;;;4.80;;
6348;SDS011;3207;42.648;23.406;2023-06-14T04:54:07;6.93;;;5.43;;
6348;SDS011;3207;42.648;23.406;2023-06-14T04:56:35;7.18;;;4.75;;
6348;SDS011;3207;42.648;23.406;2023-06-14T04:59:02;5.00;;;4.40;;
6348;SDS011;3207;42.648;23.406;2023-06-14T05:01:29;9.65;;;4.55;;
6348;SDS011;3207;42.648;23.406;2023-06-14T05:03:56;5.70;;;4.68;;
6348;SDS011;3207;42.648;23.406;2023-06-14T05:06:24;7.78;;;5.10;;
6348;SDS011;3207;42.648;23.406;2023-06-14T05:08:51;8.10;;;4.45;;
6348;SDS011;3207;42.648;23.406;2023-06-14T05:11:18;8.25;;;5.18;;
6348;SDS011;3207;42.648;23.406;2023-06-14T05:13:44;5.53;;;4.93;;
6348;SDS011;3207;42.648;23.406;2023-06-14T05:16:11;7.20;;;5.18;;
6348;SDS011;3207;42.648;23.406;2023-06-14T05:18:40;9.43;;;6.47;;
6348;SDS011;3207;42.648;23.406;2023-06-14T05:21:07;9.35;;;6.78;;
6348;SDS011;3207;42.648;23.406;2023-06-14T05:23:35;11.82;;;7.43;;
6348;SDS011;3207;42.648;23.406;2023-06-14T05:26:01;9.18;;;6.35;;
6348;SDS011;3207;42.648;23.406;2023-06-14T05:28:29;8.55;;;7.10;;
6348;SDS011;3207;42.648;23.406;2023-06-14T05:30:56;6.35;;;5.35;;
6348;SDS011;3207;42.648;23.406;2023-06-14T05:33:23;12.32;;;6.78;;
6348;SDS011;3207;42.648;23.406;2023-06-14T05:35:50;6.65;;;5.88;;
6348;SDS011;3207;42.648;23.406;2023-06-14T05:38:17;9.32;;;5.97;;
6348;SDS011;3207;42.648;23.406;2023-06-14T05:40:44;8.38;;;6.18;;
6348;SDS011;3207;42.648;23.406;2023-06-14T05:43:11;6.55;;;5.15;;
6348;SDS011;3207;42.648;23.406;2023-06-14T05:45:38;7.55;;;5.30;;
6348;SDS011;3207;42.648;23.406;2023-06-14T05:48:04;6.22;;;5.50;;
6348;SDS011;3207;42.648;23.406;2023-06-14T05:50:31;7.15;;;5.03;;
6348;SDS011;3207;42.648;23.406;2023-06-14T05:52:57;11.25;;;5.85;;
6348;SDS011;3207;42.648;23.406;2023-06-14T05:55:24;6.60;;;4.90;;
6348;SDS011;3207;42.648;23.406;2023-06-14T05:57:52;9.45;;;5.30;;
6348;SDS011;3207;42.648;23.406;2023-06-14T06:00:19;10.63;;;4.68;;
6348;SDS011;3207;42.648;23.406;2023-06-14T06:02:46;5.38;;;4.85;;
6348;SDS011;3207;42.648;23.406;2023-06-14T06:05:13;6.55;;;5.13;;
6348;SDS011;3207;42.648;23.406;2023-06-14T06:07:41;4.40;;;3.63;;
6348;SDS011;3207;42.648;23.406;2023-06-14T06:10:09;7.72;;;4.30;;
6348;SDS011;3207;42.648;23.406;2023-06-14T06:12:36;6.45;;;4.10;;
6348;SDS011;3207;42.648;23.406;2023-06-14T06:15:05;6.40;;;4.15;;
6348;SDS011;3207;42.648;23.406;2023-06-14T06:17:32;6.90;;;4.40;;
6348;SDS011;3207;42.648;23.406;2023-06-14T06:20:00;4.30;;;3.75;;
6348;SDS011;3207;42.648;23.406;2023-06-14T06:22:27;6.45;;;3.50;;
6348;SDS011;3207;42.648;23.406;2023-06-14T06:24:54;4.55;;;4.00;;
6348;SDS011;3207;42.648;23.406;2023-06-14T06:27:20;5.18;;;3.08;;
6348;SDS011;3207;42.648;23.406;2023-06-14T06:29:48;5.07;;;3.30;;
6348;SDS011;3207;42.648;23.406;2023-06-14T06:32:16;3.75;;;3.45;;
6348;SDS011;3207;42.648;23.406;2023-06-14T06:34:43;4.03;;;3.28;;
6348;SDS011;3207;42.648;23.406;2023-06-14T06:37:10;3.50;;;3.17;;
6348;SDS011;3207;42.648;23.406;2023-06-14T06:39:36;3.92;;;3.35;;
6348;SDS011;3207;42.648;23.406;2023-06-14T06:42:03;5.30;;;3.60;;
6348;SDS011;3207;42.648;23.406;2023-06-14T06:44:31;13.45;;;3.28;;
6348;SDS011;3207;42.648;23.406;2023-06-14T06:46:59;6.03;;;3.53;;
6348;SDS011;3207;42.648;23.406;2023-06-14T06:49:27;3.47;;;3.17;;
6348;SDS011;3207;42.648;23.406;2023-06-14T06:52:00;7.28;;;3.20;;
6348;SDS011;3207;42.648;23.406;2023-06-14T06:54:28;5.25;;;3.72;;
6348;SDS011;3207;42.648;23.406;2023-06-14T06:56:55;5.85;;;3.47;;
6348;SDS011;3207;42.648;23.406;2023-06-14T06:59:22;3.85;;;3.53;;
6348;SDS011;3207;42.648;23.406;2023-06-14T07:01:49;4.85;;;3.65;;
6348;SDS011;3207;42.648;23.406;2023-06-14T07:04:16;4.55;;;3.63;;
6348;SDS011;3207;42.648;23.406;2023-06-14T07:06:45;7.40;;;3.40;;
6348;SDS011;3207;42.648;23.406;2023-06-14T07:09:12;3.83;;;3.47;;
6348;SDS011;3207;42.648;23.406;2023-06-14T07:11:40;4.30;;;3.78;;
6348;SDS011;3207;42.648;23.406;2023-06-14T07:14:07;5.65;;;3.60;;
6348;SDS011;3207;42.648;23.406;2023-06-14T07:16:34;4.47;;;3.63;;
6348;SDS011;3207;42.648;23.406;2023-06-14T07:19:01;4.30;;;3.33;;
6348;SDS011;3207;42.648;23.406;2023-06-14T07:21:28;3.72;;;2.90;;
6348;SDS011;3207;42.648;23.406;2023-06-14T07:23:56;4.03;;;3.63;;
6348;SDS011;3207;42.648;23.406;2023-06-14T07:26:23;3.78;;;3.42;;
6348;SDS011;3207;42.648;23.406;2023-06-14T07:28:50;4.78;;;3.92;;
6348;SDS011;3207;42.648;23.406;2023-06-14T07:31:17;5.85;;;3.90;;
6348;SDS011;3207;42.648;23.406;2023-06-14T07:33:44;6.78;;;3.67;;
6348;SDS011;3207;42.648;23.406;2023-06-14T07:36:11;8.80;;;4.03;;
6348;SDS011;3207;42.648;23.406;2023-06-14T07:38:38;4.72;;;3.72;;
6348;SDS011;3207;42.648;23.406;2023-06-14T07:41:07;4.20;;;3.35;;
6348;SDS011;3207;42.648;23.406;2023-06-14T07:43:33;4.78;;;3.42;;
6348;SDS011;3207;42.648;23.406;2023-06-14T07:46:00;3.88;;;3.25;;
6348;SDS011;3207;42.648;23.406;2023-06-14T07:48:28;4.47;;;3.80;;
6348;SDS011;3207;42.648;23.406;2023-06-14T07:50:55;5.57;;;4.13;;
6348;SDS011;3207;42.648;23.406;2023-06-14T07:53:21;6.13;;;4.68;;
6348;SDS011;3207;42.648;23.406;2023-06-14T07:55:48;4.78;;;3.95;;
6348;SDS011;3207;42.648;23.406;2023-06-14T07:58:17;5.90;;;4.07;;
6348;SDS011;3207;42.648;23.406;2023-06-14T08:00:44;4.95;;;3.67;;
6348;SDS011;3207;42.648;23.406;2023-06-14T08:03:11;5.22;;;4.13;;
6348;SDS011;3207;42.648;23.406;2023-06-14T08:05:38;3.90;;;3.47;;
6348;SDS011;3207;42.648;23.406;2023-06-14T08:08:04;5.13;;;4.03;;
6348;SDS011;3207;42.648;23.406;2023-06-14T08:10:31;5.40;;;4.20;;
6348;SDS011;3207;42.648;23.406;2023-06-14T08:12:58;6.53;;;4.38;;
6348;SDS011;3207;42.648;23.406;2023-06-14T08:15:26;6.65;;;4.10;;
6348;SDS011;3207;42.648;23.406;2023-06-14T08:17:53;7.45;;;4.30;;
6348;SDS011;3207;42.648;23.406;2023-06-14T08:20:20;6.82;;;4.22;;
6348;SDS011;3207;42.648;23.406;2023-06-14T08:22:47;5.40;;;4.03;;
6348;SDS011;3207;42.648;23.406;2023-06-14T08:25:13;4.22;;;3.83;;
6348;SDS011;3207;42.648;23.406;2023-06-14T08:27:40;7.95;;;4.05;;
6348;SDS011;3207;42.648;23.406;2023-06-14T08:30:07;7.35;;;4.63;;
6348;SDS011;3207;42.648;23.406;2023-06-14T08:32:36;5.55;;;4.55;;
6348;SDS011;3207;42.648;23.406;2023-06-14T08:35:06;5.40;;;3.97;;
6348;SDS011;3207;42.648;23.406;2023-06-14T08:37:37;5.05;;;4.00;;
6348;SDS011;3207;42.648;23.406;2023-06-14T08:40:04;4.38;;;3.97;;
6348;SDS011;3207;42.648;23.406;2023-06-14T08:42:42;4.57;;;4.00;;
6348;SDS011;3207;42.648;23.406;2023-06-14T08:45:09;4.60;;;4.10;;
6348;SDS011;3207;42.648;23.406;2023-06-14T08:47:37;4.82;;;4.43;;
6348;SDS011;3207;42.648;23.406;2023-06-14T08:50:07;5.63;;;4.47;;
6348;SDS011;3207;42.648;23.406;2023-06-14T08:52:36;6.18;;;4.40;;
6348;SDS011;3207;42.648;23.406;2023-06-14T08:55:10;7.50;;;4.60;;
6348;SDS011;3207;42.648;23.406;2023-06-14T08:57:38;4.47;;;4.05;;
6348;SDS011;3207;42.648;23.406;2023-06-14T09:00:07;5.18;;;4.45;;
6348;SDS011;3207;42.648;23.406;2023-06-14T09:02:38;4.72;;;4.18;;
6348;SDS011;3207;42.648;23.406;2023-06-14T09:05:09;4.43;;;4.00;;
6348;SDS011;3207;42.648;23.406;2023-06-14T09:07:38;5.03;;;4.53;;
6348;SDS011;3207;42.648;23.406;2023-06-14T09:10:07;6.15;;;4.05;;
6348;SDS011;3207;42.648;23.406;2023-06-14T09:12:36;4.60;;;4.20;;
6348;SDS011;3207;42.648;23.406;2023-06-14T09:15:03;4.82;;;3.97;;
6348;SDS011;3207;42.648;23.406;2023-06-14T09:17:32;4.03;;;3.65;;
6348;SDS011;3207;42.648;23.406;2023-06-14T09:20:01;4.88;;;4.47;;
6348;SDS011;3207;42.648;23.406;2023-06-14T09:22:31;9.73;;;5.07;;
6348;SDS011;3207;42.648;23.406;2023-06-14T09:24:58;6.07;;;4.00;;
6348;SDS011;3207;42.648;23.406;2023-06-14T09:27:25;4.80;;;3.70;;
6348;SDS011;3207;42.648;23.406;2023-06-14T09:29:52;4.25;;;3.90;;
6348;SDS011;3207;42.648;23.406;2023-06-14T09:32:20;5.20;;;3.88;;
6348;SDS011;3207;42.648;23.406;2023-06-14T09:34:47;7.60;;;4.45;;
6348;SDS011;3207;42.648;23.406;2023-06-14T09:37:18;4.50;;;4.10;;
6348;SDS011;3207;42.648;23.406;2023-06-14T09:39:53;4.47;;;4.07;;
6348;SDS011;3207;42.648;23.406;2023-06-14T09:42:20;8.90;;;4.38;;
6348;SDS011;3207;42.648;23.406;2023-06-14T09:44:48;6.13;;;4.07;;
6348;SDS011;3207;42.648;23.406;2023-06-14T09:47:16;8.20;;;4.95;;
6348;SDS011;3207;42.648;23.406;2023-06-14T09:49:43;5.30;;;4.72;;
6348;SDS011;3207;42.648;23.406;2023-06-14T09:52:10;6.55;;;4.55;;
6348;SDS011;3207;42.648;23.406;2023-06-14T09:54:41;7.82;;;4.82;;
6348;SDS011;3207;42.648;23.406;2023-06-14T09:57:08;4.78;;;4.43;;
6348;SDS011;3207;42.648;23.406;2023-06-14T09:59:39;4.53;;;3.97;;
6348;SDS011;3207;42.648;23.406;2023-06-14T10:02:09;4.97;;;4.47;;
6348;SDS011;3207;42.648;23.406;2023-06-14T10:04:40;4.72;;;4.13;;
6348;SDS011;3207;42.648;23.406;2023-06-14T10:07:12;5.07;;;4.57;;
6348;SDS011;3207;42.648;23.406;2023-06-14T10:09:45;4.18;;;3.88;;
6348;SDS011;3207;42.648;23.406;2023-06-14T10:12:15;6.22;;;4.43;;
6348;SDS011;3207;42.648;23.406;2023-06-14T10:14:47;5.00;;;4.57;;
6348;SDS011;3207;42.648;23.406;2023-06-14T10:17:19;7.18;;;4.47;;
6348;SDS011;3207;42.648;23.406;2023-06-14T10:19:51;9.70;;;5.10;;
6348;SDS011;3207;42.648;23.406;2023-06-14T10:22:24;5.53;;;4.68;;
6348;SDS011;3207;42.648;23.406;2023-06-14T10:24:57;5.35;;;4.05;;
6348;SDS011;3207;42.648;23.406;2023-06-14T10:27:24;5.28;;;4.75;;
6348;SDS011;3207;42.648;23.406;2023-06-14T10:32:34;5.15;;;4.53;;
6348;SDS011;3207;42.648;23.406;2023-06-14T10:35:04;6.65;;;5.20;;
6348;SDS011;3207;42.648;23.406;2023-06-14T10:37:32;5.50;;;4.32;;
6348;SDS011;3207;42.648;23.406;2023-06-14T10:40:00;4.63;;;4.22;;
6348;SDS011;3207;42.648;23.406;2023-06-14T10:42:28;6.65;;;4.55;;
6348;SDS011;3207;42.648;23.406;2023-06-14T10:44:58;4.82;;;4.43;;
6348;SDS011;3207;42.648;23.406;2023-06-14T10:47:27;5.95;;;4.45;;
6348;SDS011;3207;42.648;23.406;2023-06-14T10:49:55;4.90;;;4.50;;
6348;SDS011;3207;42.648;23.406;2023-06-14T10:52:23;5.70;;;4.25;;
6348;SDS011;3207;42.648;23.406;2023-06-14T10:55:01;5.30;;;4.30;;
6348;SDS011;3207;42.648;23.406;2023-06-14T10:57:34;4.63;;;4.22;;
6348;SDS011;3207;42.648;23.406;2023-06-14T11:00:01;5.00;;;4.60;;
6348;SDS011;3207;42.648;23.406;2023-06-14T11:05:50;5.50;;;4.70;;
6348;SDS011;3207;42.648;23.406;2023-06-14T11:08:21;4.55;;;4.25;;
6348;SDS011;3207;42.648;23.406;2023-06-14T11:11:21;5.45;;;4.30;;
6348;SDS011;3207;42.648;23.406;2023-06-14T11:13:48;5.07;;;4.60;;
6348;SDS011;3207;42.648;23.406;2023-06-14T11:16:17;5.32;;;4.93;;
6348;SDS011;3207;42.648;23.406;2023-06-14T11:18:45;5.28;;;4.55;;
6348;SDS011;3207;42.648;23.406;2023-06-14T11:21:15;5.25;;;4.15;;
6348;SDS011;3207;42.648;23.406;2023-06-14T11:23:48;5.00;;;4.47;;
6348;SDS011;3207;42.648;23.406;2023-06-14T11:26:16;6.60;;;4.38;;
6348;SDS011;3207;42.648;23.406;2023-06-14T11:28:54;4.75;;;4.32;;
6348;SDS011;3207;42.648;23.406;2023-06-14T11:31:22;5.60;;;4.93;;
6348;SDS011;3207;42.648;23.406;2023-06-14T11:33:49;4.43;;;4.13;;
6348;SDS011;3207;42.648;23.406;2023-06-14T11:36:16;4.82;;;4.05;;
6348;SDS011;3207;42.648;23.406;2023-06-14T11:38:43;4.70;;;4.30;;
6348;SDS011;3207;42.648;23.406;2023-06-14T11:41:10;6.30;;;4.60;;
6348;SDS011;3207;42.648;23.406;2023-06-14T11:43:37;5.05;;;4.65;;
6348;SDS011;3207;42.648;23.406;2023-06-14T11:46:11;5.20;;;4.80;;
6348;SDS011;3207;42.648;23.406;2023-06-14T11:48:40;6.05;;;5.55;;
6348;SDS011;3207;42.648;23.406;2023-06-14T11:51:07;5.57;;;5.10;;
6348;SDS011;3207;42.648;23.406;2023-06-14T11:53:34;6.45;;;5.25;;
6348;SDS011;3207;42.648;23.406;2023-06-14T11:56:02;6.15;;;4.93;;
6348;SDS011;3207;42.648;23.406;2023-06-14T11:58:29;8.27;;;5.25;;
6348;SDS011;3207;42.648;23.406;2023-06-14T12:00:56;6.32;;;5.13;;
6348;SDS011;3207;42.648;23.406;2023-06-14T12:03:24;6.30;;;5.07;;
6348;SDS011;3207;42.648;23.406;2023-06-14T12:06:01;7.00;;;5.13;;
6348;SDS011;3207;42.648;23.406;2023-06-14T12:08:32;4.80;;;4.40;;
6348;SDS011;3207;42.648;23.406;2023-06-14T12:11:03;4.55;;;4.25;;
6348;SDS011;3207;42.648;23.406;2023-06-14T12:13:30;6.57;;;4.93;;
6348;SDS011;3207;42.648;23.406;2023-06-14T12:15:57;7.85;;;5.07;;
6348;SDS011;3207;42.648;23.406;2023-06-14T12:18:32;8.10;;;4.22;;
6348;SDS011;3207;42.648;23.406;2023-06-14T12:21:00;6.18;;;4.70;;
6348;SDS011;3207;42.648;23.406;2023-06-14T12:23:38;5.30;;;4.90;;
6348;SDS011;3207;42.648;23.406;2023-06-14T12:26:06;4.93;;;4.43;;
6348;SDS011;3207;42.648;23.406;2023-06-14T12:28:32;4.70;;;4.22;;
6348;SDS011;3207;42.648;23.406;2023-06-14T12:30:59;6.95;;;4.78;;
6348;SDS011;3207;42.648;23.406;2023-06-14T12:33:26;4.45;;;4.10;;
6348;SDS011;3207;42.648;23.406;2023-06-14T12:35:56;4.50;;;4.10;;
6348;SDS011;3207;42.648;23.406;2023-06-14T12:38:24;5.82;;;4.32;;
6348;SDS011;3207;42.648;23.406;2023-06-14T12:40:51;8.63;;;5.88;;
6348;SDS011;3207;42.648;23.406;2023-06-14T12:43:17;4.85;;;4.45;;
6348;SDS011;3207;42.648;23.406;2023-06-14T12:45:44;4.60;;;4.20;;
6348;SDS011;3207;42.648;23.406;2023-06-14T12:48:11;5.20;;;4.70;;
6348;SDS011;3207;42.648;23.406;2023-06-14T12:50:38;6.93;;;4.65;;
6348;SDS011;3207;42.648;23.406;2023-06-14T12:53:06;7.82;;;4.55;;
6348;SDS011;3207;42.648;23.406;2023-06-14T12:55:33;5.15;;;4.65;;
6348;SDS011;3207;42.648;23.406;2023-06-14T12:58:00;6.22;;;4.20;;
6348;SDS011;3207;42.648;23.406;2023-06-14T13:00:27;4.72;;;4.28;;
6348;SDS011;3207;42.648;23.406;2023-06-14T13:02:55;8.07;;;4.93;;
6348;SDS011;3207;42.648;23.406;2023-06-14T13:05:22;7.03;;;4.18;;
6348;SDS011;3207;42.648;23.406;2023-06-14T13:07:49;5.60;;;4.55;;
6348;SDS011;3207;42.648;23.406;2023-06-14T13:10:17;4.07;;;3.78;;
6348;SDS011;3207;42.648;23.406;2023-06-14T13:12:44;5.35;;;4.25;;
6348;SDS011;3207;42.648;23.406;2023-06-14T13:15:11;7.93;;;4.13;;
6348;SDS011;3207;42.648;23.406;2023-06-14T13:17:38;5.50;;;4.30;;
6348;SDS011;3207;42.648;23.406;2023-06-14T13:20:06;4.47;;;4.10;;
6348;SDS011;3207;42.648;23.406;2023-06-14T13:22:33;5.60;;;4.40;;
6348;SDS011;3207;42.648;23.406;2023-06-14T13:25:00;5.13;;;4.70;;
6348;SDS011;3207;42.648;23.406;2023-06-14T13:27:29;4.93;;;4.15;;
6348;SDS011;3207;42.648;23.406;2023-06-14T13:29:56;6.97;;;4.47;;
6348;SDS011;3207;42.648;23.406;2023-06-14T13:32:23;4.43;;;4.03;;
6348;SDS011;3207;42.648;23.406;2023-06-14T13:34:50;5.03;;;3.72;;
6348;SDS011;3207;42.648;23.406;2023-06-14T13:37:17;4.60;;;4.20;;
6348;SDS011;3207;42.648;23.406;2023-06-14T13:39:44;4.43;;;4.07;;
6348;SDS011;3207;42.648;23.406;2023-06-14T13:42:11;8.40;;;4.78;;
6348;SDS011;3207;42.648;23.406;2023-06-14T13:44:39;5.78;;;4.35;;
6348;SDS011;3207;42.648;23.406;2023-06-14T13:47:06;3.88;;;3.58;;
6348;SDS011;3207;42.648;23.406;2023-06-14T13:49:33;5.13;;;3.95;;
6348;SDS011;3207;42.648;23.406;2023-06-14T13:52:00;4.72;;;4.32;;
6348;SDS011;3207;42.648;23.406;2023-06-14T13:54:27;4.38;;;4.07;;
6348;SDS011;3207;42.648;23.406;2023-06-14T13:56:54;7.15;;;3.88;;
6348;SDS011;3207;42.648;23.406;2023-06-14T13:59:21;4.15;;;3.85;;
6348;SDS011;3207;42.648;23.406;2023-06-14T14:01:49;4.53;;;4.13;;
6348;SDS011;3207;42.648;23.406;2023-06-14T14:04:16;5.07;;;4.40;;
6348;SDS011;3207;42.648;23.406;2023-06-14T14:06:43;7.05;;;4.93;;
6348;SDS011;3207;42.648;23.406;2023-06-14T14:09:10;4.72;;;4.32;;
6348;SDS011;3207;42.648;23.406;2023-06-14T14:11:38;5.60;;;3.90;;
6348;SDS011;3207;42.648;23.406;2023-06-14T14:14:06;5.28;;;3.92;;
6348;SDS011;3207;42.648;23.406;2023-06-14T14:16:33;6.03;;;3.83;;
6348;SDS011;3207;42.648;23.406;2023-06-14T14:19:02;9.23;;;4.40;;
6348;SDS011;3207;42.648;23.406;2023-06-14T14:21:30;4.43;;;4.03;;
6348;SDS011;3207;42.648;23.406;2023-06-14T14:23:57;8.05;;;4.32;;
6348;SDS011;3207;42.648;23.406;2023-06-14T14:26:24;4.50;;;4.10;;
6348;SDS011;3207;42.648;23.406;2023-06-14T14:28:51;5.43;;;4.53;;
6348;SDS011;3207;42.648;23.406;2023-06-14T14:31:18;5.45;;;4.18;;
6348;SDS011;3207;42.648;23.406;2023-06-14T14:33:45;4.53;;;4.13;;
6348;SDS011;3207;42.648;23.406;2023-06-14T14:36:13;4.63;;;4.22;;
6348;SDS011;3207;42.648;23.406;2023-06-14T14:38:40;4.97;;;4.00;;
6348;SDS011;3207;42.648;23.406;2023-06-14T14:41:10;4.22;;;3.90;;
6348;SDS011;3207;42.648;23.406;2023-06-14T14:43:37;4.30;;;3.70;;
6348;SDS011;3207;42.648;23.406;2023-06-14T14:46:03;4.63;;;3.95;;
6348;SDS011;3207;42.648;23.406;2023-06-14T14:48:33;7.15;;;4.57;;
6348;SDS011;3207;42.648;23.406;2023-06-14T14:51:00;5.50;;;3.83;;
6348;SDS011;3207;42.648;23.406;2023-06-14T14:53:28;6.78;;;4.35;;
6348;SDS011;3207;42.648;23.406;2023-06-14T14:55:55;5.78;;;3.85;;
6348;SDS011;3207;42.648;23.406;2023-06-14T14:58:22;4.38;;;4.00;;
6348;SDS011;3207;42.648;23.406;2023-06-14T15:00:49;4.60;;;4.20;;
6348;SDS011;3207;42.648;23.406;2023-06-14T15:03:16;4.72;;;4.32;;
6348;SDS011;3207;42.648;23.406;2023-06-14T15:05:42;5.30;;;4.35;;
6348;SDS011;3207;42.648;23.406;2023-06-14T15:08:09;8.80;;;4.15;;
6348;SDS011;3207;42.648;23.406;2023-06-14T15:10:38;5.20;;;3.78;;